createdAt,value
2017-12-02T00:02:10.181Z,31.77
2017-12-02T00:04:36.324Z,31.30
2017-12-02T00:07:02.462Z,29.02
2017-12-02T00:09:28.623Z,33.97
2017-12-02T00:11:58.341Z,33.35
2017-12-02T00:14:25.204Z,32.00
2017-12-02T00:16:52.057Z,33.22
2017-12-02T00:19:18.191Z,32.88
2017-12-02T00:21:44.327Z,36.65
2017-12-02T00:24:10.613Z,35.95
2017-12-02T00:26:36.714Z,36.08
2017-12-02T00:29:03.625Z,32.55
2017-12-02T00:31:30.221Z,34.10
2017-12-02T00:33:57.091Z,32.38
2017-12-02T00:36:24.308Z,32.17
2017-12-02T00:38:50.481Z,31.80
2017-12-02T00:41:17.368Z,31.92
2017-12-02T00:43:43.500Z,33.10
2017-12-02T00:46:12.682Z,33.15
2017-12-02T00:48:39.527Z,34.85
2017-12-02T00:51:05.624Z,33.80
2017-12-02T00:53:31.739Z,33.28
2017-12-02T00:55:57.932Z,30.10
2017-12-02T00:58:24.197Z,31.35
2017-12-02T01:00:51.053Z,31.42
2017-12-02T01:03:17.940Z,32.10
2017-12-02T01:05:44.152Z,33.72
2017-12-02T01:08:13.109Z,34.67
2017-12-02T01:10:39.276Z,36.45
2017-12-02T01:13:05.369Z,35.00
2017-12-02T01:15:31.477Z,34.15
2017-12-02T01:17:58.373Z,36.17
2017-12-02T01:20:24.558Z,32.55
2017-12-02T01:22:52.764Z,32.40
2017-12-02T01:25:18.884Z,32.90
2017-12-02T01:27:44.988Z,32.92
2017-12-02T01:30:11.116Z,32.08
2017-12-02T01:32:37.280Z,30.05
2017-12-02T01:35:03.401Z,30.60
2017-12-02T01:37:29.507Z,29.90
2017-12-02T01:39:56.415Z,32.15
2017-12-02T01:42:22.572Z,31.80
2017-12-02T01:44:48.728Z,29.60
2017-12-02T01:47:14.832Z,30.05
2017-12-02T01:49:40.966Z,31.17
2017-12-02T01:52:07.068Z,28.10
2017-12-02T01:54:33.934Z,28.95
2017-12-02T01:57:00.049Z,30.15
2017-12-02T01:59:26.159Z,29.00
2017-12-02T02:01:52.259Z,31.23
2017-12-02T02:04:19.085Z,31.00
2017-12-02T02:06:45.226Z,31.60
2017-12-02T02:09:11.380Z,33.15
2017-12-02T02:11:38.225Z,30.85
2017-12-02T02:14:05.070Z,32.90
2017-12-02T02:16:31.328Z,30.35
2017-12-02T02:18:58.208Z,30.10
2017-12-02T02:21:25.084Z,31.33
2017-12-02T02:23:51.180Z,31.83
2017-12-02T02:26:17.288Z,34.28
2017-12-02T02:28:43.409Z,32.33
2017-12-02T02:31:09.554Z,32.20
2017-12-02T02:33:35.749Z,29.80
2017-12-02T02:36:02.606Z,30.85
2017-12-02T02:38:29.440Z,31.85
2017-12-02T02:40:56.309Z,32.45
2017-12-02T02:43:23.289Z,33.85
2017-12-02T02:45:49.390Z,35.40
2017-12-02T02:48:15.492Z,35.80
2017-12-02T02:50:41.653Z,36.72
2017-12-02T02:53:07.748Z,36.30
2017-12-02T02:55:33.849Z,35.60
2017-12-02T02:57:59.973Z,34.00
2017-12-02T03:00:26.104Z,35.47
2017-12-02T03:02:52.197Z,33.83
2017-12-02T03:05:18.292Z,31.95
2017-12-02T03:07:44.568Z,31.98
2017-12-02T03:10:11.429Z,33.20
2017-12-02T03:12:38.318Z,32.97
2017-12-02T03:15:04.457Z,34.38
2017-12-02T03:17:30.766Z,36.80
2017-12-02T03:19:56.929Z,36.65
2017-12-02T03:22:23.153Z,36.13
2017-12-02T03:24:49.276Z,33.17
2017-12-02T03:27:16.130Z,33.78
2017-12-02T03:29:42.240Z,35.40
2017-12-02T03:32:08.371Z,39.10
2017-12-02T03:34:34.751Z,36.00
2017-12-02T03:37:01.673Z,35.05
2017-12-02T03:39:27.811Z,32.13
2017-12-02T03:41:53.925Z,32.50
2017-12-02T03:44:20.083Z,32.75
2017-12-02T03:46:46.258Z,34.55
2017-12-02T03:49:13.123Z,35.90
2017-12-02T03:51:39.252Z,34.95
2017-12-02T03:54:06.136Z,33.80
2017-12-02T03:56:32.258Z,36.88
2017-12-02T03:58:59.484Z,33.25
2017-12-02T04:01:25.625Z,34.80
2017-12-02T04:03:51.768Z,41.30
2017-12-02T04:06:17.916Z,36.08
2017-12-02T04:08:44.469Z,36.90
2017-12-02T04:11:10.608Z,36.45
2017-12-02T04:13:36.760Z,34.05
2017-12-02T04:16:03.634Z,33.70
2017-12-02T04:18:29.761Z,34.08
2017-12-02T04:20:55.946Z,34.28
2017-12-02T04:23:22.074Z,33.05
2017-12-02T04:25:48.234Z,31.83
2017-12-02T04:28:14.392Z,32.55
2017-12-02T04:30:41.273Z,33.88
2017-12-02T04:33:08.169Z,31.87
2017-12-02T04:35:34.276Z,30.58
2017-12-02T04:38:01.129Z,29.95
2017-12-02T04:40:28.003Z,30.17
2017-12-02T04:42:54.116Z,37.40
2017-12-02T04:45:20.978Z,39.92
2017-12-02T04:47:47.108Z,36.25
2017-12-02T04:50:13.952Z,42.95
2017-12-02T04:52:40.120Z,43.72
2017-12-02T04:55:06.992Z,38.38
2017-12-02T04:57:33.196Z,36.28
2017-12-02T05:00:00.057Z,37.60
2017-12-02T05:02:26.898Z,37.90
2017-12-02T05:04:54.169Z,39.90
2017-12-02T05:07:21.008Z,40.78
2017-12-02T05:09:47.100Z,40.22
2017-12-02T05:12:13.224Z,40.05
2017-12-02T05:14:39.329Z,41.20
2017-12-02T05:17:05.655Z,40.83
2017-12-02T05:19:31.722Z,42.53
2017-12-02T05:21:58.570Z,38.80
2017-12-02T05:24:24.697Z,41.97
2017-12-02T05:26:50.828Z,36.15
2017-12-02T05:29:16.933Z,38.83
2017-12-02T05:31:43.080Z,38.45
2017-12-02T05:34:09.220Z,37.83
2017-12-02T05:36:35.328Z,38.50
2017-12-02T05:39:01.432Z,40.15
2017-12-02T05:41:27.585Z,42.25
2017-12-02T05:43:53.761Z,42.28
2017-12-02T05:46:19.874Z,46.80
2017-12-02T05:48:46.001Z,50.47
2017-12-02T05:51:12.880Z,41.58
2017-12-02T05:53:38.992Z,38.55
2017-12-02T05:56:05.851Z,35.97
2017-12-02T05:58:32.843Z,36.70
2017-12-02T06:01:00.024Z,36.65
2017-12-02T06:03:26.159Z,33.47
2017-12-02T06:05:52.284Z,38.70
2017-12-02T06:08:18.383Z,39.58
2017-12-02T06:10:45.300Z,40.22
2017-12-02T06:13:11.392Z,41.83
2017-12-02T06:15:37.530Z,40.42
2017-12-02T06:18:04.402Z,45.50
2017-12-02T06:20:30.519Z,43.17
2017-12-02T06:22:57.399Z,43.67
2017-12-02T06:25:23.673Z,43.17
2017-12-02T06:27:49.788Z,41.25
2017-12-02T06:30:15.900Z,42.42
2017-12-02T06:32:42.001Z,42.65
2017-12-02T06:35:08.138Z,44.25
2017-12-02T06:37:34.353Z,43.15
2017-12-02T06:40:00.455Z,40.40
2017-12-02T06:42:26.554Z,45.65
2017-12-02T06:44:53.471Z,47.75
2017-12-02T06:47:19.681Z,42.88
2017-12-02T06:49:45.809Z,41.03
2017-12-02T06:52:11.935Z,40.90
2017-12-02T06:54:38.096Z,38.30
2017-12-02T06:57:04.196Z,41.83
2017-12-02T06:59:30.348Z,39.65
2017-12-02T07:01:57.306Z,42.00
2017-12-02T07:04:24.524Z,41.80
2017-12-02T07:06:50.670Z,42.00
2017-12-02T07:09:16.799Z,38.83
2017-12-02T07:14:18.594Z,38.05
2017-12-02T07:16:44.735Z,35.03
2017-12-02T07:19:10.937Z,36.35
2017-12-02T07:21:37.443Z,33.50
2017-12-02T07:24:03.561Z,36.30
2017-12-02T07:26:29.740Z,34.50
2017-12-02T07:28:55.896Z,38.92
2017-12-02T07:31:23.231Z,35.80
2017-12-02T07:33:49.401Z,38.47
2017-12-02T07:36:15.553Z,35.72
2017-12-02T07:38:41.692Z,36.55
2017-12-02T07:41:07.913Z,34.72
2017-12-02T07:43:34.074Z,35.42
2017-12-02T07:46:00.262Z,34.15
2017-12-02T07:48:28.525Z,33.40
2017-12-02T07:50:54.661Z,37.05
2017-12-02T07:53:20.790Z,35.05
2017-12-02T07:55:46.965Z,34.33
2017-12-02T07:58:13.097Z,32.72
2017-12-02T08:00:40.049Z,33.53
2017-12-02T08:03:06.160Z,34.90
2017-12-02T08:05:32.268Z,31.62
2017-12-02T08:07:58.372Z,35.17
2017-12-02T08:10:25.317Z,32.15
2017-12-02T08:12:51.474Z,32.75
2017-12-02T08:15:17.576Z,31.23
2017-12-02T08:17:44.421Z,31.95
2017-12-02T08:20:10.539Z,30.67
2017-12-02T08:22:37.820Z,31.17
2017-12-02T08:25:05.442Z,29.15
2017-12-02T08:27:32.284Z,30.90
2017-12-02T08:29:58.448Z,29.48
2017-12-02T08:32:24.602Z,30.37
2017-12-02T08:34:50.777Z,30.15
2017-12-02T08:37:16.900Z,30.73
2017-12-02T08:39:43.032Z,29.98
2017-12-02T08:42:09.161Z,30.40
2017-12-02T08:44:35.257Z,29.92
2017-12-02T08:47:01.381Z,33.40
2017-12-02T08:49:28.542Z,31.87
2017-12-02T08:51:54.653Z,32.22
2017-12-02T08:54:20.780Z,32.88
2017-12-02T08:56:46.928Z,32.15
2017-12-02T08:59:13.053Z,32.40
2017-12-02T09:01:39.899Z,30.12
2017-12-02T09:04:06.041Z,32.67
2017-12-02T09:06:33.061Z,29.83
2017-12-02T09:08:59.222Z,31.12
2017-12-02T09:11:25.326Z,28.80
2017-12-02T09:13:51.430Z,30.00
2017-12-02T09:16:17.577Z,30.67
2017-12-02T09:18:43.678Z,27.90
2017-12-02T09:21:10.649Z,28.35
2017-12-02T09:23:37.547Z,28.30
2017-12-02T09:26:03.699Z,27.37
2017-12-02T09:28:29.823Z,28.10
2017-12-02T09:30:55.962Z,28.05
2017-12-02T09:33:22.092Z,25.52
2017-12-02T09:35:48.201Z,28.73
2017-12-02T09:38:14.317Z,29.90
2017-12-02T09:40:40.469Z,28.35
2017-12-02T09:43:07.313Z,30.80
2017-12-02T09:45:34.167Z,28.98
2017-12-02T09:48:01.025Z,29.00
2017-12-02T09:50:27.139Z,26.15
2017-12-02T09:52:53.351Z,27.30
2017-12-02T09:55:19.461Z,26.55
2017-12-02T09:57:46.355Z,25.67
2017-12-02T10:00:15.239Z,26.62
2017-12-02T10:02:41.425Z,25.67
2017-12-02T10:05:07.668Z,26.23
2017-12-02T10:07:34.015Z,24.05
2017-12-02T10:10:00.977Z,22.23
2017-12-02T10:12:27.852Z,24.23
2017-12-02T10:14:54.030Z,26.35
2017-12-02T10:17:20.974Z,25.50
2017-12-02T10:19:47.822Z,25.62
2017-12-02T10:22:14.028Z,26.73
2017-12-02T10:24:40.190Z,25.20
2017-12-02T10:27:06.320Z,27.17
2017-12-02T10:32:06.217Z,27.20
2017-12-02T10:37:18.897Z,27.52
2017-12-02T10:39:45.030Z,26.60
2017-12-02T10:42:11.290Z,30.45
2017-12-02T10:44:37.437Z,28.17
2017-12-02T10:47:03.788Z,26.50
2017-12-02T10:49:29.887Z,28.48
2017-12-02T10:52:00.410Z,29.35
2017-12-02T10:54:27.389Z,29.42
2017-12-02T10:56:53.520Z,28.62
2017-12-02T10:59:25.926Z,29.37
2017-12-02T11:01:52.794Z,29.35
2017-12-02T11:04:23.438Z,27.77
2017-12-02T11:06:56.389Z,26.70
2017-12-02T11:09:23.236Z,27.23
2017-12-02T11:11:49.430Z,25.75
2017-12-02T11:14:18.724Z,24.30
2017-12-02T11:16:44.975Z,23.85
2017-12-02T11:19:11.118Z,24.20
2017-12-02T11:21:37.249Z,27.60
2017-12-02T11:24:03.404Z,22.80
2017-12-02T11:26:29.523Z,24.12
2017-12-02T11:29:00.238Z,22.92
2017-12-02T11:31:42.190Z,25.20
2017-12-02T11:34:17.122Z,25.70
2017-12-02T11:36:43.539Z,25.92
2017-12-02T11:39:09.852Z,24.60
2017-12-02T11:41:36.246Z,23.52
2017-12-02T11:44:05.089Z,24.52
2017-12-02T11:46:31.402Z,24.30
2017-12-02T11:49:02.016Z,24.95
2017-12-02T11:51:29.092Z,23.30
2017-12-02T11:53:55.473Z,26.67
2017-12-02T11:56:21.815Z,23.40
2017-12-02T11:58:48.195Z,25.27
2017-12-02T12:01:16.183Z,24.25
2017-12-02T12:03:42.511Z,24.67
2017-12-02T12:06:09.589Z,24.23
2017-12-02T12:08:36.656Z,25.77
2017-12-02T12:11:03.136Z,23.35
2017-12-02T12:13:29.456Z,24.12
2017-12-02T12:15:55.781Z,25.00
2017-12-02T12:18:22.161Z,24.60
2017-12-02T12:20:48.450Z,28.12
2017-12-02T12:23:15.520Z,24.95
2017-12-02T12:25:42.577Z,21.77
2017-12-02T12:28:08.900Z,22.77
2017-12-02T12:30:35.992Z,23.60
2017-12-02T12:33:07.243Z,23.42
2017-12-02T12:35:34.512Z,27.37
2017-12-02T12:38:00.824Z,30.17
2017-12-02T12:40:27.108Z,26.58
2017-12-02T12:42:53.420Z,24.63
2017-12-02T12:45:19.953Z,25.65
2017-12-02T12:47:46.447Z,24.75
2017-12-02T12:50:12.768Z,25.98
2017-12-02T12:52:45.775Z,29.92
2017-12-02T12:55:12.081Z,25.15
2017-12-02T12:57:38.400Z,25.80
2017-12-02T13:00:04.943Z,21.92
2017-12-02T13:02:31.297Z,25.52
2017-12-02T13:04:57.584Z,22.60
2017-12-02T13:07:24.700Z,21.75
2017-12-02T13:09:51.036Z,20.20
2017-12-02T13:12:17.752Z,24.17
2017-12-02T13:14:44.884Z,30.20
2017-12-02T13:17:11.331Z,29.20
2017-12-02T13:19:37.641Z,25.67
2017-12-02T13:22:03.982Z,21.42
2017-12-02T13:24:30.322Z,20.40
2017-12-02T13:26:56.647Z,20.50
2017-12-02T13:29:22.975Z,20.92
2017-12-02T13:31:50.080Z,20.55
2017-12-02T13:34:16.462Z,19.83
2017-12-02T13:36:43.557Z,19.60
2017-12-02T13:39:09.902Z,22.58
2017-12-02T13:41:36.218Z,20.77
2017-12-02T13:44:03.263Z,19.35
2017-12-02T13:46:30.290Z,19.98
2017-12-02T13:48:56.628Z,21.05
2017-12-02T13:51:23.088Z,20.17
2017-12-02T13:53:49.446Z,20.98
2017-12-02T13:56:15.791Z,21.17
2017-12-02T13:58:42.121Z,20.90
2017-12-02T14:01:09.222Z,23.38
2017-12-02T14:03:36.910Z,23.42
2017-12-02T14:06:03.217Z,21.40
2017-12-02T14:08:30.299Z,22.67
2017-12-02T14:10:56.631Z,22.83
2017-12-02T14:13:23.267Z,23.90
2017-12-02T14:15:50.307Z,22.48
2017-12-02T14:18:16.722Z,23.02
2017-12-02T14:20:43.077Z,22.55
2017-12-02T14:23:10.168Z,21.87
2017-12-02T14:25:37.227Z,24.50
2017-12-02T14:28:04.334Z,22.55
2017-12-02T14:30:30.716Z,23.33
2017-12-02T14:32:57.024Z,22.80
2017-12-02T14:35:23.360Z,22.17
2017-12-02T14:37:49.850Z,22.13
2017-12-02T14:40:16.426Z,21.90
2017-12-02T14:42:42.772Z,22.25
2017-12-02T14:45:09.818Z,23.92
2017-12-02T14:47:36.861Z,22.30
2017-12-02T14:50:03.193Z,22.75
2017-12-02T14:52:29.486Z,22.58
2017-12-02T14:54:55.865Z,22.25
2017-12-02T14:57:22.163Z,23.62
2017-12-02T14:59:48.542Z,22.15
2017-12-02T15:02:14.865Z,22.20
2017-12-02T15:04:41.195Z,22.50
2017-12-02T15:07:07.525Z,23.90
2017-12-02T15:09:33.972Z,26.90
2017-12-02T15:12:01.086Z,25.05
2017-12-02T15:14:27.497Z,24.17
2017-12-02T15:16:53.876Z,21.52
2017-12-02T15:19:20.229Z,23.67
2017-12-02T15:21:46.674Z,27.40
2017-12-02T15:24:13.109Z,27.45
2017-12-02T15:26:39.435Z,26.62
2017-12-02T15:29:05.763Z,28.05
2017-12-02T15:31:32.110Z,25.55
2017-12-02T15:33:58.534Z,23.45
2017-12-02T15:36:25.053Z,25.98
2017-12-02T15:38:52.139Z,25.52
2017-12-02T15:41:19.231Z,25.00
2017-12-02T15:43:45.618Z,26.50
2017-12-02T15:46:12.787Z,32.17
2017-12-02T15:48:39.196Z,28.77
2017-12-02T15:51:05.615Z,28.17
2017-12-02T15:53:31.969Z,25.40
2017-12-02T15:55:58.356Z,28.83
2017-12-02T15:58:25.481Z,26.83
2017-12-02T16:00:51.845Z,21.98
2017-12-02T16:03:22.631Z,24.35
2017-12-02T16:05:48.946Z,23.87
2017-12-02T16:08:15.996Z,24.90
2017-12-02T16:10:42.330Z,22.95
2017-12-02T16:13:08.781Z,23.95
2017-12-02T16:15:35.297Z,26.62
2017-12-02T16:20:34.630Z,23.48
2017-12-02T16:23:00.994Z,25.73
2017-12-02T16:25:27.327Z,25.75
2017-12-02T16:27:53.703Z,24.87
2017-12-02T16:30:20.117Z,27.70
2017-12-02T16:32:52.564Z,26.62
2017-12-02T16:35:19.614Z,27.50
2017-12-02T16:37:46.008Z,25.67
2017-12-02T16:40:12.319Z,27.45
2017-12-02T16:42:38.674Z,25.00
2017-12-02T16:45:04.983Z,25.42
2017-12-02T16:47:31.217Z,26.55
2017-12-02T16:49:58.275Z,29.67
2017-12-02T16:52:27.752Z,29.63
2017-12-02T16:54:54.115Z,29.05
2017-12-02T16:57:20.413Z,28.85
2017-12-02T16:59:46.788Z,25.35
2017-12-02T17:02:13.110Z,25.55
2017-12-02T17:04:40.236Z,24.12
2017-12-02T17:07:06.600Z,25.60
2017-12-02T17:09:34.673Z,23.87
2017-12-02T17:12:01.345Z,25.55
2017-12-02T17:14:28.237Z,22.10
2017-12-02T17:16:54.585Z,24.85
2017-12-02T17:19:21.630Z,23.98
2017-12-02T17:21:47.965Z,24.75
2017-12-02T17:24:20.453Z,22.15
2017-12-02T17:26:46.807Z,21.58
2017-12-02T17:29:13.191Z,22.55
2017-12-02T17:31:39.500Z,20.90
2017-12-02T17:34:05.868Z,19.55
2017-12-02T17:36:33.030Z,18.67
2017-12-02T17:39:05.111Z,20.35
2017-12-02T17:41:31.480Z,20.88
2017-12-02T17:43:58.564Z,22.73
2017-12-02T17:46:24.955Z,21.20
2017-12-02T17:48:51.273Z,19.75
2017-12-02T17:51:17.614Z,21.87
2017-12-02T17:53:43.962Z,18.48
2017-12-02T17:56:10.287Z,21.30
2017-12-02T17:58:36.705Z,21.23
2017-12-02T18:01:03.123Z,22.80
2017-12-02T18:03:29.548Z,23.30
2017-12-02T18:05:55.849Z,21.73
2017-12-02T18:08:22.238Z,23.27
2017-12-02T18:10:49.018Z,20.55
2017-12-02T18:13:20.752Z,19.83
2017-12-02T18:15:47.083Z,20.30
2017-12-02T18:18:13.462Z,18.98
2017-12-02T18:20:39.760Z,20.15
2017-12-02T18:23:06.148Z,21.87
2017-12-02T18:25:32.466Z,20.60
2017-12-02T18:27:59.482Z,20.05
2017-12-02T18:30:26.837Z,22.90
2017-12-02T18:32:53.164Z,21.55
2017-12-02T18:35:19.600Z,22.00
2017-12-02T18:37:45.928Z,20.40
2017-12-02T18:40:12.277Z,22.50
2017-12-02T18:42:38.619Z,24.75
2017-12-02T18:45:05.728Z,24.63
2017-12-02T18:47:32.059Z,21.70
2017-12-02T18:49:58.361Z,22.48
2017-12-02T18:52:24.802Z,23.45
2017-12-02T18:54:51.130Z,24.17
2017-12-02T18:57:17.494Z,24.83
2017-12-02T18:59:44.532Z,21.85
2017-12-02T19:02:10.849Z,21.98
2017-12-02T19:04:38.044Z,23.42
2017-12-02T19:07:04.383Z,22.85
2017-12-02T19:09:30.738Z,23.08
2017-12-02T19:11:57.196Z,22.77
2017-12-02T19:14:23.662Z,23.38
2017-12-02T19:16:49.976Z,23.33
2017-12-02T19:19:16.331Z,23.35
2017-12-02T19:21:42.687Z,24.73
2017-12-02T19:24:09.172Z,24.30
2017-12-02T19:26:35.589Z,22.75
2017-12-02T19:29:01.929Z,25.85
2017-12-02T19:31:28.378Z,24.65
2017-12-02T19:33:54.935Z,24.15
2017-12-02T19:36:22.012Z,22.75
2017-12-02T19:38:48.537Z,22.70
2017-12-02T19:41:14.990Z,23.33
2017-12-02T19:43:42.088Z,24.10
2017-12-02T19:46:09.086Z,20.45
2017-12-02T19:48:35.518Z,22.25
2017-12-02T19:51:01.857Z,21.92
2017-12-02T19:53:28.280Z,20.80
2017-12-02T19:55:54.791Z,22.27
2017-12-02T19:58:21.216Z,23.35
2017-12-02T20:00:47.612Z,23.15
2017-12-02T20:03:13.978Z,21.92
2017-12-02T20:05:40.416Z,20.67
2017-12-02T20:08:06.748Z,20.60
2017-12-02T20:10:33.127Z,21.27
2017-12-02T20:12:59.515Z,21.67
2017-12-02T20:15:25.869Z,20.10
2017-12-02T20:17:53.133Z,21.35
2017-12-02T20:20:20.224Z,22.42
2017-12-02T20:22:46.569Z,22.83
2017-12-02T20:25:12.896Z,22.90
2017-12-02T20:27:39.245Z,21.52
2017-12-02T20:30:05.605Z,21.35
2017-12-02T20:32:32.029Z,20.98
2017-12-02T20:34:58.426Z,23.55
2017-12-02T20:37:24.834Z,22.98
2017-12-02T20:39:51.913Z,22.92
2017-12-02T20:42:18.341Z,21.42
2017-12-02T20:44:44.663Z,20.95
2017-12-02T20:47:11.028Z,22.15
2017-12-02T20:49:37.442Z,22.55
2017-12-02T20:52:04.460Z,20.95
2017-12-02T20:54:30.784Z,20.60
2017-12-02T20:56:57.129Z,20.62
2017-12-02T20:59:23.479Z,22.60
2017-12-02T21:01:49.800Z,21.67
2017-12-02T21:04:16.130Z,20.77
2017-12-02T21:06:42.444Z,22.52
2017-12-02T21:09:08.777Z,21.85
2017-12-02T21:11:35.104Z,22.90
2017-12-02T21:14:01.432Z,22.42
2017-12-02T21:16:27.736Z,22.62
2017-12-02T21:18:54.804Z,22.67
2017-12-02T21:21:21.212Z,25.23
2017-12-02T21:23:48.281Z,23.98
2017-12-02T21:29:13.569Z,22.92
2017-12-02T21:31:39.957Z,25.12
2017-12-02T21:34:06.353Z,26.52
2017-12-02T21:36:32.669Z,27.13
2017-12-02T21:38:59.828Z,25.88
2017-12-02T21:41:26.177Z,25.02
2017-12-02T21:43:53.425Z,24.83
2017-12-02T21:46:19.712Z,23.85
2017-12-02T21:48:46.779Z,26.87
2017-12-02T21:51:13.092Z,25.05
2017-12-02T21:53:39.543Z,23.60
2017-12-02T21:56:06.639Z,23.75
2017-12-02T21:58:33.084Z,21.65
2017-12-02T22:00:59.791Z,24.17
2017-12-02T22:03:26.123Z,26.40
2017-12-02T22:05:52.453Z,24.60
2017-12-02T22:08:18.806Z,23.02
2017-12-02T22:10:45.103Z,22.20
2017-12-02T22:13:11.679Z,24.60
2017-12-02T22:15:38.086Z,22.48
2017-12-02T22:18:04.395Z,20.45
2017-12-02T22:20:30.746Z,23.52
2017-12-02T22:22:57.016Z,23.77
2017-12-02T22:25:24.077Z,25.02
2017-12-02T22:27:50.585Z,23.40
2017-12-02T22:30:17.647Z,23.90
2017-12-02T22:32:44.040Z,25.52
2017-12-02T22:35:10.444Z,23.40
2017-12-02T22:37:36.889Z,23.92
2017-12-02T22:40:03.265Z,22.85
2017-12-02T22:42:30.393Z,25.08
2017-12-02T22:44:56.740Z,24.70
2017-12-02T22:47:23.124Z,22.58
2017-12-02T22:49:49.498Z,23.87
2017-12-02T22:52:15.845Z,24.60
2017-12-02T22:54:42.299Z,22.92
2017-12-02T22:57:08.761Z,23.85
2017-12-02T22:59:35.852Z,23.20
2017-12-02T23:02:02.316Z,23.10
2017-12-02T23:04:28.692Z,24.80
2017-12-02T23:06:55.144Z,23.62
2017-12-02T23:09:21.484Z,22.42
2017-12-02T23:11:47.813Z,23.62
2017-12-02T23:14:14.373Z,24.17
2017-12-02T23:16:40.711Z,27.73
2017-12-02T23:19:07.040Z,25.65
2017-12-02T23:21:33.394Z,23.67
2017-12-02T23:23:59.752Z,22.40
2017-12-02T23:26:26.106Z,22.52
2017-12-02T23:28:52.471Z,22.55
2017-12-02T23:31:18.999Z,21.52
2017-12-02T23:33:46.076Z,23.73
2017-12-02T23:36:13.136Z,22.13
2017-12-02T23:38:40.014Z,23.60
2017-12-02T23:41:06.912Z,21.00
2017-12-02T23:43:33.016Z,23.38
2017-12-02T23:45:59.183Z,23.30
2017-12-02T23:48:25.326Z,22.98
2017-12-02T23:50:51.458Z,22.58
2017-12-02T23:53:17.584Z,21.87
2017-12-02T23:55:43.917Z,22.10
2017-12-02T23:58:18.949Z,23.77
